createdAt,value
2024-03-30T00:00:26.003Z,38.83
2024-03-30T00:01:23.963Z,41.53
2024-03-30T00:02:23.993Z,37.35
2024-03-30T00:03:24.015Z,40.29
2024-03-30T00:04:24.011Z,41.88
2024-03-30T00:05:24.001Z,39.63
2024-03-30T00:06:24.004Z,38.22
2024-03-30T00:07:24.019Z,38.14
2024-03-30T00:08:24.010Z,41.18
2024-03-30T00:09:23.997Z,40.24
2024-03-30T00:10:24.004Z,38.68
2024-03-30T00:11:24.005Z,39.14
2024-03-30T00:12:23.985Z,37.27
2024-03-30T00:13:24.033Z,43.05
2024-03-30T00:14:24.044Z,42.08
2024-03-30T00:15:24.050Z,39.45
2024-03-30T00:16:24.025Z,38.55
2024-03-30T00:17:24.047Z,40.47
2024-03-30T00:18:24.040Z,44.84
2024-03-30T00:19:24.052Z,42.21
2024-03-30T00:20:24.058Z,38.55
2024-03-30T00:21:23.970Z,41.23
2024-03-30T00:22:24.034Z,39.90
2024-03-30T00:23:23.992Z,41.22
2024-03-30T00:24:24.005Z,40.40
2024-03-30T00:25:24.804Z,46.91
2024-03-30T00:26:24.105Z,49.52
2024-03-30T00:27:24.344Z,45.21
2024-03-30T00:28:24.071Z,49.18
2024-03-30T00:29:24.068Z,41.04
2024-03-30T00:30:24.088Z,41.76
2024-03-30T00:31:24.058Z,44.02
2024-03-30T00:32:24.061Z,42.52
2024-03-30T00:33:24.084Z,43.85
2024-03-30T00:34:24.032Z,43.47
2024-03-30T00:35:24.137Z,37.22
2024-03-30T00:36:24.116Z,40.53
2024-03-30T00:37:24.167Z,37.74
2024-03-30T00:38:24.142Z,40.14
2024-03-30T00:39:24.099Z,41.20
2024-03-30T00:40:24.175Z,38.53
2024-03-30T00:41:24.163Z,43.90
2024-03-30T00:42:24.148Z,39.26
2024-03-30T00:43:24.022Z,44.54
2024-03-30T00:44:24.159Z,39.70
2024-03-30T00:45:24.032Z,44.53
2024-03-30T00:46:24.046Z,44.90
2024-03-30T00:47:26.527Z,45.72
2024-03-30T00:48:25.058Z,46.15
2024-03-30T00:49:24.044Z,40.25
2024-03-30T00:50:24.051Z,39.15
2024-03-30T00:51:24.059Z,40.79
2024-03-30T00:52:24.087Z,42.76
2024-03-30T00:53:24.802Z,41.99
2024-03-30T00:54:24.261Z,42.11
2024-03-30T00:55:24.248Z,45.21
2024-03-30T00:56:24.315Z,42.69
2024-03-30T00:57:24.327Z,41.61
2024-03-30T00:58:24.332Z,37.83
2024-03-30T00:59:24.315Z,45.10
2024-03-30T01:00:24.403Z,40.14
2024-03-30T01:01:24.370Z,37.92
2024-03-30T01:02:24.464Z,47.08
2024-03-30T01:03:24.438Z,41.25
2024-03-30T01:04:24.452Z,38.51
2024-03-30T01:05:24.521Z,37.37
2024-03-30T01:06:24.483Z,36.45
2024-03-30T01:07:24.576Z,41.19
2024-03-30T01:08:24.640Z,46.63
2024-03-30T01:09:24.591Z,42.60
2024-03-30T01:10:24.666Z,39.40
2024-03-30T01:11:24.635Z,38.01
2024-03-30T01:12:24.736Z,44.01
2024-03-30T01:13:24.677Z,44.24
2024-03-30T01:14:24.727Z,46.10
2024-03-30T01:15:24.954Z,44.21
2024-03-30T01:16:25.247Z,44.74
2024-03-30T01:17:25.700Z,43.09
2024-03-30T01:18:24.916Z,41.80
2024-03-30T01:19:24.939Z,39.13
2024-03-30T01:20:24.949Z,40.92
2024-03-30T01:21:25.012Z,41.40
2024-03-30T01:22:25.021Z,37.19
2024-03-30T01:23:25.117Z,46.29
2024-03-30T01:24:25.128Z,41.19
2024-03-30T01:25:25.095Z,38.91
2024-03-30T01:26:25.174Z,39.28
2024-03-30T01:27:25.140Z,38.34
2024-03-30T01:28:25.188Z,36.19
2024-03-30T01:29:25.202Z,42.23
2024-03-30T01:30:25.355Z,39.81
2024-03-30T01:31:25.413Z,46.00
2024-03-30T01:32:25.425Z,42.25
2024-03-30T01:33:25.491Z,40.93
2024-03-30T01:34:25.484Z,39.26
2024-03-30T01:35:25.486Z,40.01
2024-03-30T01:36:25.494Z,37.92
2024-03-30T01:37:25.609Z,46.21
2024-03-30T01:38:25.546Z,43.19
2024-03-30T01:39:25.616Z,38.90
2024-03-30T01:40:25.674Z,39.15
2024-03-30T01:41:25.709Z,34.89
2024-03-30T01:42:25.735Z,39.83
2024-03-30T01:43:25.716Z,38.11
2024-03-30T01:44:25.762Z,39.24
2024-03-30T01:45:25.784Z,39.73
2024-03-30T01:46:25.836Z,39.47
2024-03-30T01:47:25.822Z,37.18
2024-03-30T01:48:25.883Z,42.52
2024-03-30T01:49:25.900Z,41.61
2024-03-30T01:50:25.921Z,37.87
2024-03-30T01:51:25.952Z,42.55
2024-03-30T01:52:26.009Z,40.32
2024-03-30T01:53:26.099Z,37.04
2024-03-30T01:54:26.124Z,35.29
2024-03-30T01:55:26.061Z,37.12
2024-03-30T01:56:26.055Z,38.13
2024-03-30T01:57:26.162Z,47.19
2024-03-30T01:58:26.184Z,38.43
2024-03-30T01:59:26.217Z,39.06
2024-03-30T02:00:26.244Z,45.71
2024-03-30T02:01:26.253Z,40.49
2024-03-30T02:02:26.443Z,40.61
2024-03-30T02:03:26.340Z,32.79
2024-03-30T02:04:26.401Z,36.16
2024-03-30T02:05:26.438Z,35.61
2024-03-30T02:06:26.448Z,40.15
2024-03-30T02:07:26.499Z,36.86
2024-03-30T02:08:26.514Z,36.18
2024-03-30T02:09:26.567Z,36.45
2024-03-30T02:10:26.674Z,40.46
2024-03-30T02:11:26.561Z,34.00
2024-03-30T02:12:26.622Z,38.92
2024-03-30T02:13:26.662Z,36.57
2024-03-30T02:14:26.678Z,34.44
2024-03-30T02:15:26.699Z,33.00
2024-03-30T02:16:26.701Z,37.12
2024-03-30T02:17:26.864Z,32.09
2024-03-30T02:18:26.909Z,40.05
2024-03-30T02:19:26.840Z,39.64
2024-03-30T02:20:26.917Z,39.38
2024-03-30T02:21:26.914Z,39.17
2024-03-30T02:22:28.105Z,37.92
2024-03-30T02:23:26.920Z,36.50
2024-03-30T02:24:27.067Z,38.85
2024-03-30T02:25:27.071Z,36.65
2024-03-30T02:26:27.145Z,30.71
2024-03-30T02:27:27.208Z,33.25
2024-03-30T02:28:27.172Z,41.69
2024-03-30T02:29:27.203Z,40.05
2024-03-30T02:30:27.275Z,35.99
2024-03-30T02:31:27.215Z,33.69
2024-03-30T02:32:27.594Z,37.81
2024-03-30T02:33:27.331Z,34.56
2024-03-30T02:34:27.388Z,42.24
2024-03-30T02:35:27.358Z,35.39
2024-03-30T02:36:27.381Z,36.49
2024-03-30T02:37:27.434Z,38.42
2024-03-30T02:38:27.462Z,35.04
2024-03-30T02:39:27.488Z,39.28
2024-03-30T02:40:27.535Z,34.97
2024-03-30T02:41:27.589Z,36.31
2024-03-30T02:42:27.609Z,35.76
2024-03-30T02:43:27.609Z,36.98
2024-03-30T02:44:27.676Z,37.56
2024-03-30T02:45:27.686Z,34.70
2024-03-30T02:46:27.691Z,37.06
2024-03-30T02:47:27.760Z,39.15
2024-03-30T02:48:27.741Z,35.51
2024-03-30T02:49:27.860Z,39.21
2024-03-30T02:50:27.911Z,38.33
2024-03-30T02:51:27.858Z,36.33
2024-03-30T02:52:27.905Z,37.94
2024-03-30T02:53:27.935Z,34.31
2024-03-30T02:54:27.983Z,38.52
2024-03-30T02:55:28.023Z,33.67
2024-03-30T02:56:28.055Z,38.29
2024-03-30T02:57:28.085Z,36.77
2024-03-30T02:58:28.073Z,33.27
2024-03-30T02:59:28.090Z,39.34
2024-03-30T03:00:28.142Z,34.99
2024-03-30T03:01:28.145Z,35.94
2024-03-30T03:02:28.198Z,40.63
2024-03-30T03:03:28.209Z,37.32
2024-03-30T03:04:28.225Z,41.27
2024-03-30T03:05:28.333Z,37.21
2024-03-30T03:06:28.347Z,31.27
2024-03-30T03:07:28.447Z,32.74
2024-03-30T03:08:28.432Z,30.42
2024-03-30T03:09:28.413Z,35.92
2024-03-30T03:10:28.460Z,34.87
2024-03-30T03:11:28.527Z,34.64
2024-03-30T03:12:28.532Z,28.54
2024-03-30T03:13:28.635Z,29.45
2024-03-30T03:14:28.582Z,32.17
2024-03-30T03:15:28.682Z,36.43
2024-03-30T03:16:28.696Z,33.50
2024-03-30T03:17:28.777Z,33.46
2024-03-30T03:18:28.829Z,32.81
2024-03-30T03:19:28.831Z,31.16
2024-03-30T03:20:28.835Z,32.00
2024-03-30T03:21:28.857Z,36.18
2024-03-30T03:22:28.939Z,31.22
2024-03-30T03:23:28.861Z,33.83
2024-03-30T03:24:28.948Z,33.85
2024-03-30T03:25:28.983Z,30.27
2024-03-30T03:26:29.073Z,33.89
2024-03-30T03:27:29.061Z,33.41
2024-03-30T03:28:29.087Z,33.63
2024-03-30T03:29:29.114Z,28.79
2024-03-30T03:30:29.159Z,32.98
2024-03-30T03:31:29.203Z,33.03
2024-03-30T03:32:29.327Z,31.95
2024-03-30T03:33:29.304Z,35.98
2024-03-30T03:34:29.344Z,33.65
2024-03-30T03:35:29.387Z,30.28
2024-03-30T03:36:29.374Z,24.09
2024-03-30T03:37:29.550Z,33.06
2024-03-30T03:38:29.518Z,30.69
2024-03-30T03:39:29.576Z,31.08
2024-03-30T03:40:29.569Z,26.40
2024-03-30T03:41:29.579Z,30.68
2024-03-30T03:42:29.637Z,26.14
2024-03-30T03:43:29.655Z,22.70
2024-03-30T03:44:29.695Z,26.31
2024-03-30T03:45:31.918Z,24.44
2024-03-30T03:46:29.831Z,29.66
2024-03-30T03:47:29.724Z,33.34
2024-03-30T03:48:29.725Z,28.39
2024-03-30T03:49:29.699Z,25.62
2024-03-30T03:50:29.734Z,29.80
2024-03-30T03:51:29.712Z,25.53
2024-03-30T03:52:29.751Z,28.54
2024-03-30T03:53:29.826Z,27.98
2024-03-30T03:54:29.764Z,27.07
2024-03-30T03:55:29.790Z,26.51
2024-03-30T03:56:29.952Z,26.82
2024-03-30T03:57:29.795Z,26.53
2024-03-30T03:58:29.789Z,24.47
2024-03-30T03:59:29.796Z,26.40
2024-03-30T04:00:29.811Z,24.83
2024-03-30T04:01:30.422Z,32.47
2024-03-30T04:02:29.833Z,23.16
2024-03-30T04:03:29.830Z,25.97
2024-03-30T04:04:29.845Z,24.60
2024-03-30T04:05:29.736Z,28.67
2024-03-30T04:06:29.751Z,32.30
2024-03-30T04:07:29.856Z,24.32
2024-03-30T04:08:29.858Z,28.91
2024-03-30T04:09:29.763Z,26.88
2024-03-30T04:10:29.771Z,25.81
2024-03-30T04:11:29.781Z,28.70
2024-03-30T04:12:29.789Z,21.77
2024-03-30T04:13:29.787Z,30.07
2024-03-30T04:14:29.796Z,26.64
2024-03-30T04:15:29.815Z,25.88
2024-03-30T04:16:30.828Z,28.28
2024-03-30T04:17:29.821Z,29.98
2024-03-30T04:18:29.940Z,30.17
2024-03-30T04:19:29.832Z,24.23
2024-03-30T04:20:29.839Z,25.44
2024-03-30T04:21:29.846Z,31.71
2024-03-30T04:22:29.854Z,32.13
2024-03-30T04:23:29.841Z,28.99
2024-03-30T04:24:29.855Z,25.59
2024-03-30T04:25:29.870Z,29.02
2024-03-30T04:26:29.960Z,29.92
2024-03-30T04:27:29.987Z,28.94
2024-03-30T04:28:29.994Z,26.00
2024-03-30T04:29:30.012Z,24.31
2024-03-30T04:30:30.094Z,32.68
2024-03-30T04:31:30.116Z,32.38
2024-03-30T04:32:30.287Z,30.62
2024-03-30T04:33:30.238Z,23.12
2024-03-30T04:34:30.242Z,24.86
2024-03-30T04:35:30.350Z,27.75
2024-03-30T04:36:30.352Z,28.20
2024-03-30T04:37:30.376Z,25.15
2024-03-30T04:38:30.445Z,25.51
2024-03-30T04:39:30.465Z,30.48
2024-03-30T04:40:30.435Z,25.54
2024-03-30T04:41:30.495Z,29.65
2024-03-30T04:42:38.079Z,29.31
2024-03-30T04:43:38.098Z,25.10
2024-03-30T04:44:38.034Z,25.20
2024-03-30T04:45:38.108Z,24.02
2024-03-30T04:46:38.149Z,30.37
2024-03-30T04:47:38.145Z,29.92
2024-03-30T04:48:38.101Z,32.13
2024-03-30T04:49:38.075Z,31.29
2024-03-30T04:50:38.108Z,28.28
2024-03-30T04:51:38.062Z,29.31
2024-03-30T04:52:38.052Z,29.27
2024-03-30T04:53:38.168Z,25.64
2024-03-30T04:54:38.074Z,26.11
2024-03-30T04:55:38.068Z,25.52
2024-03-30T04:56:38.083Z,30.80
2024-03-30T04:57:38.098Z,28.43
2024-03-30T04:58:38.115Z,27.00
2024-03-30T04:59:38.097Z,28.10
2024-03-30T05:00:38.114Z,30.53
2024-03-30T05:01:38.090Z,25.47
2024-03-30T05:02:38.118Z,29.43
2024-03-30T05:03:38.053Z,28.85
2024-03-30T05:04:38.125Z,26.09
2024-03-30T05:05:38.075Z,30.20
2024-03-30T05:06:38.127Z,35.62
2024-03-30T05:07:38.137Z,29.22
2024-03-30T05:08:38.176Z,29.72
2024-03-30T05:09:38.092Z,31.68
2024-03-30T05:10:38.104Z,25.95
2024-03-30T05:11:38.107Z,29.66
2024-03-30T05:12:38.268Z,27.71
2024-03-30T05:13:38.114Z,29.05
2024-03-30T05:14:38.086Z,30.03
2024-03-30T05:15:38.129Z,28.09
2024-03-30T05:16:40.302Z,30.80
2024-03-30T05:17:38.216Z,34.58
2024-03-30T05:18:38.203Z,27.30
2024-03-30T05:19:38.229Z,30.99
2024-03-30T05:20:38.240Z,29.78
2024-03-30T05:21:38.266Z,29.82
2024-03-30T05:22:38.293Z,31.96
2024-03-30T05:23:38.491Z,29.85
2024-03-30T05:24:38.480Z,27.97
2024-03-30T05:25:38.471Z,29.49
2024-03-30T05:26:38.485Z,31.00
2024-03-30T05:27:38.606Z,31.13
2024-03-30T05:28:38.521Z,21.34
2024-03-30T05:29:38.580Z,26.23
2024-03-30T05:30:38.607Z,32.99
2024-03-30T05:31:38.655Z,32.24
2024-03-30T05:32:38.743Z,27.45
2024-03-30T05:33:38.764Z,30.68
2024-03-30T05:34:38.842Z,29.10
2024-03-30T05:35:38.863Z,23.75
2024-03-30T05:36:38.968Z,28.45
2024-03-30T05:37:38.885Z,23.98
2024-03-30T05:38:38.983Z,32.31
2024-03-30T05:39:38.996Z,28.73
2024-03-30T05:40:38.998Z,28.10
2024-03-30T05:41:39.061Z,30.66
2024-03-30T05:42:39.091Z,32.91
2024-03-30T05:43:39.233Z,34.05
2024-03-30T05:44:39.139Z,27.12
2024-03-30T05:45:39.228Z,31.13
2024-03-30T05:46:39.375Z,33.72
2024-03-30T05:47:39.373Z,33.24
2024-03-30T05:48:39.276Z,32.07
2024-03-30T05:49:39.357Z,35.07
2024-03-30T05:50:39.383Z,35.76
2024-03-30T05:51:39.485Z,27.00
2024-03-30T05:52:39.506Z,27.66
2024-03-30T05:53:39.494Z,26.13
2024-03-30T05:54:39.512Z,33.68
2024-03-30T05:55:39.603Z,32.30
2024-03-30T05:56:39.613Z,30.89
2024-03-30T05:57:39.598Z,30.87
2024-03-30T05:58:39.635Z,31.89
2024-03-30T05:59:39.637Z,33.44
2024-03-30T06:00:39.721Z,29.73
2024-03-30T06:01:39.748Z,30.03
2024-03-30T06:02:39.754Z,36.18
2024-03-30T06:03:39.824Z,37.02
2024-03-30T06:04:39.859Z,32.56
2024-03-30T06:05:39.876Z,32.34
2024-03-30T06:06:39.892Z,36.43
2024-03-30T06:07:40.008Z,32.48
2024-03-30T06:08:39.951Z,32.51
2024-03-30T06:09:40.017Z,31.09
2024-03-30T06:10:40.004Z,31.01
2024-03-30T06:11:40.042Z,37.62
2024-03-30T06:12:40.074Z,30.09
2024-03-30T06:13:41.059Z,36.19
2024-03-30T06:14:40.138Z,31.57
2024-03-30T06:15:40.156Z,33.04
2024-03-30T06:16:40.218Z,32.76
2024-03-30T06:17:40.261Z,35.41
2024-03-30T06:18:40.324Z,35.93
2024-03-30T06:19:40.330Z,31.11
2024-03-30T06:20:40.387Z,36.08
2024-03-30T06:21:40.394Z,34.54
2024-03-30T06:22:40.472Z,35.44
2024-03-30T06:23:40.497Z,38.15
2024-03-30T06:24:40.469Z,34.43
2024-03-30T06:25:40.550Z,32.74
2024-03-30T06:26:40.598Z,38.45
2024-03-30T06:27:40.651Z,32.04
2024-03-30T06:28:40.693Z,47.53
2024-03-30T06:29:40.748Z,37.87
2024-03-30T06:30:40.715Z,39.22
2024-03-30T06:31:40.784Z,34.99
2024-03-30T06:32:40.822Z,29.23
2024-03-30T06:33:40.997Z,37.56
2024-03-30T06:34:43.159Z,40.20
2024-03-30T06:35:40.963Z,35.58
2024-03-30T06:36:40.964Z,36.17
2024-03-30T06:37:41.045Z,36.29
2024-03-30T06:38:41.533Z,40.07
2024-03-30T06:39:41.030Z,39.39
2024-03-30T06:40:41.088Z,37.40
2024-03-30T06:41:41.165Z,36.89
2024-03-30T06:42:41.264Z,33.82
2024-03-30T06:43:41.260Z,39.81
2024-03-30T06:44:41.279Z,38.43
2024-03-30T06:45:41.304Z,35.92
2024-03-30T06:46:41.342Z,38.33
2024-03-30T06:47:41.419Z,35.41
2024-03-30T06:48:41.407Z,36.40
2024-03-30T06:49:41.416Z,38.27
2024-03-30T06:50:41.525Z,36.84
2024-03-30T06:51:41.543Z,37.12
2024-03-30T06:52:41.559Z,42.37
2024-03-30T06:53:41.644Z,38.01
2024-03-30T06:54:41.680Z,40.03
2024-03-30T06:55:41.698Z,49.19
2024-03-30T06:56:41.788Z,39.71
2024-03-30T06:57:41.835Z,39.16
2024-03-30T06:58:41.916Z,40.14
2024-03-30T06:59:41.841Z,34.91
2024-03-30T07:00:41.937Z,39.95
2024-03-30T07:01:41.949Z,42.22
2024-03-30T07:02:41.964Z,35.93
2024-03-30T07:03:42.125Z,36.79
2024-03-30T07:04:42.062Z,38.65
2024-03-30T07:05:42.165Z,37.02
2024-03-30T07:06:42.175Z,38.81
2024-03-30T07:07:42.195Z,35.63
2024-03-30T07:08:42.288Z,43.58
2024-03-30T07:09:42.284Z,38.43
2024-03-30T07:10:42.404Z,37.86
2024-03-30T07:11:42.390Z,37.18
2024-03-30T07:12:42.412Z,40.33
2024-03-30T07:13:42.424Z,37.05
2024-03-30T07:14:42.470Z,36.71
2024-03-30T07:15:42.538Z,38.30
2024-03-30T07:17:12.149Z,36.21
2024-03-30T07:17:43.475Z,42.66
2024-03-30T07:18:42.554Z,43.78
2024-03-30T07:19:42.556Z,35.48
2024-03-30T07:20:42.586Z,39.51
2024-03-30T07:21:42.570Z,43.65
2024-03-30T07:22:42.592Z,48.01
2024-03-30T07:23:42.593Z,40.92
2024-03-30T07:24:42.524Z,43.90
2024-03-30T07:25:42.607Z,35.93
2024-03-30T07:26:42.518Z,40.77
2024-03-30T07:27:55.350Z,38.99
2024-03-30T07:28:55.318Z,33.29
2024-03-30T07:29:55.415Z,38.14
2024-03-30T07:30:55.349Z,47.98
2024-03-30T07:31:55.344Z,40.09
2024-03-30T07:32:55.378Z,42.22
2024-03-30T07:33:55.440Z,47.51
2024-03-30T07:34:55.375Z,42.63
2024-03-30T07:35:55.363Z,46.07
2024-03-30T07:36:55.388Z,45.54
2024-03-30T07:37:55.326Z,50.31
2024-03-30T07:38:55.395Z,41.73
2024-03-30T07:39:55.332Z,40.10
2024-03-30T07:40:55.374Z,38.90
2024-03-30T07:41:55.396Z,48.13
2024-03-30T07:42:55.340Z,47.37
2024-03-30T07:43:55.361Z,45.01
2024-03-30T07:44:55.325Z,46.17
2024-03-30T07:45:55.438Z,44.19
2024-03-30T07:46:55.388Z,42.21
2024-03-30T07:47:55.445Z,43.18
2024-03-30T07:48:55.443Z,41.65
2024-03-30T07:49:56.001Z,44.30
2024-03-30T07:50:55.351Z,43.92
2024-03-30T07:51:55.392Z,42.38
2024-03-30T07:52:55.382Z,51.91
2024-03-30T07:53:55.504Z,47.04
2024-03-30T07:54:55.394Z,51.47
2024-03-30T07:55:55.400Z,52.63
2024-03-30T07:56:55.414Z,45.01
2024-03-30T07:57:55.407Z,50.29
2024-03-30T07:58:56.666Z,49.61
2024-03-30T07:59:55.453Z,50.07
2024-03-30T08:00:55.458Z,48.14
2024-03-30T08:01:55.491Z,51.14
2024-03-30T08:02:55.563Z,52.34
2024-03-30T08:03:55.605Z,41.66
2024-03-30T08:04:55.601Z,47.08
2024-03-30T08:05:55.687Z,53.84
2024-03-30T08:06:55.614Z,51.12
2024-03-30T08:07:55.683Z,45.04
2024-03-30T08:08:55.784Z,38.71
2024-03-30T08:09:55.802Z,49.91
2024-03-30T08:10:55.813Z,47.78
2024-03-30T08:11:55.836Z,52.27
2024-03-30T08:12:55.875Z,51.59
2024-03-30T08:13:55.933Z,45.62
2024-03-30T08:14:55.988Z,52.30
2024-03-30T08:15:56.037Z,55.64
2024-03-30T08:16:56.148Z,46.75
2024-03-30T08:17:56.079Z,51.69
2024-03-30T08:18:56.172Z,49.86
2024-03-30T08:19:56.164Z,58.13
2024-03-30T08:20:56.184Z,61.46
2024-03-30T08:21:56.228Z,48.22
2024-03-30T08:22:56.328Z,44.37
2024-03-30T08:23:56.343Z,46.13
2024-03-30T08:24:56.406Z,50.44
2024-03-30T08:25:56.413Z,53.02
2024-03-30T08:26:56.444Z,54.42
2024-03-30T08:27:56.482Z,41.06
2024-03-30T08:28:57.374Z,62.50
2024-03-30T08:29:56.548Z,55.09
2024-03-30T08:30:56.560Z,58.47
2024-03-30T08:31:56.600Z,57.72
2024-03-30T08:32:56.613Z,52.08
2024-03-30T08:33:56.686Z,53.00
2024-03-30T08:34:56.693Z,59.30
2024-03-30T08:35:56.723Z,57.12
2024-03-30T08:36:56.824Z,52.91
2024-03-30T08:37:56.843Z,56.17
2024-03-30T08:38:56.852Z,55.69
2024-03-30T08:39:56.927Z,56.59
2024-03-30T08:40:56.916Z,57.79
2024-03-30T08:41:56.881Z,53.55
2024-03-30T08:42:56.949Z,56.97
2024-03-30T08:43:57.059Z,52.73
2024-03-30T08:44:57.076Z,62.77
2024-03-30T08:45:57.074Z,68.30
2024-03-30T08:46:57.172Z,59.23
2024-03-30T08:47:57.195Z,63.66
2024-03-30T08:48:57.301Z,60.28
2024-03-30T08:49:57.244Z,52.03
2024-03-30T08:50:57.323Z,55.13
2024-03-30T08:51:57.419Z,58.96
2024-03-30T08:52:57.370Z,54.49
2024-03-30T08:53:57.530Z,44.12
2024-03-30T08:54:57.547Z,55.18
2024-03-30T08:55:57.484Z,56.29
2024-03-30T08:56:57.560Z,61.43
2024-03-30T08:57:57.591Z,59.89
2024-03-30T08:58:57.683Z,62.66
2024-03-30T08:59:58.081Z,56.03
2024-03-30T09:00:57.703Z,63.60
2024-03-30T09:01:57.740Z,53.55
2024-03-30T09:02:57.737Z,53.40
2024-03-30T09:03:57.931Z,100.18
2024-03-30T09:04:58.007Z,60.40
2024-03-30T09:05:57.920Z,52.50
2024-03-30T09:06:58.027Z,52.46
2024-03-30T09:07:57.948Z,54.47
2024-03-30T09:08:58.065Z,63.54
2024-03-30T09:09:58.149Z,58.42
2024-03-30T09:10:58.073Z,56.89
2024-03-30T09:11:58.164Z,51.52
2024-03-30T09:12:58.185Z,52.89
2024-03-30T09:13:58.204Z,54.84
2024-03-30T09:14:58.213Z,69.46
2024-03-30T09:15:59.838Z,60.75
2024-03-30T09:16:58.300Z,68.11
2024-03-30T09:17:58.321Z,67.64
2024-03-30T09:18:58.320Z,54.88
2024-03-30T09:19:58.324Z,55.23
2024-03-30T09:20:58.343Z,62.29
2024-03-30T09:21:58.330Z,57.04
2024-03-30T09:22:58.345Z,62.37
2024-03-30T09:23:58.395Z,53.84
2024-03-30T09:24:58.300Z,56.93
2024-03-30T09:25:58.275Z,60.01
2024-03-30T09:26:58.276Z,58.82
2024-03-30T09:27:58.279Z,59.19
2024-03-30T09:28:58.366Z,52.06
2024-03-30T09:29:58.299Z,56.10
2024-03-30T09:30:58.403Z,57.56
2024-03-30T09:31:58.298Z,55.88
2024-03-30T09:32:58.318Z,55.55
2024-03-30T09:33:58.312Z,54.48
2024-03-30T09:34:58.320Z,59.17
2024-03-30T09:35:58.312Z,57.96
2024-03-30T09:36:59.890Z,54.35
2024-03-30T09:37:58.295Z,49.09
2024-03-30T09:38:58.371Z,58.09
2024-03-30T09:39:58.293Z,57.77
2024-03-30T09:40:58.287Z,48.46
2024-03-30T09:41:58.382Z,58.63
2024-03-30T09:42:58.389Z,57.54
2024-03-30T09:43:58.373Z,59.15
2024-03-30T09:44:58.319Z,53.48
2024-03-30T09:45:58.318Z,52.63
2024-03-30T09:46:58.320Z,58.34
2024-03-30T09:47:58.334Z,51.12
2024-03-30T09:48:58.323Z,54.44
2024-03-30T09:49:58.315Z,52.27
2024-03-30T09:50:58.319Z,50.95
2024-03-30T09:51:58.463Z,48.37
2024-03-30T09:52:58.878Z,57.79
2024-03-30T09:53:59.285Z,50.99
2024-03-30T09:54:58.372Z,54.29
2024-03-30T09:55:58.282Z,46.53
2024-03-30T09:56:58.388Z,50.93
2024-03-30T09:57:58.386Z,58.24
2024-03-30T09:58:58.400Z,51.62
2024-03-30T09:59:58.349Z,53.99
2024-03-30T10:00:58.403Z,56.51
2024-03-30T10:01:58.320Z,55.01
2024-03-30T10:02:58.322Z,55.73
2024-03-30T10:04:01.454Z,48.93
2024-03-30T10:04:58.327Z,47.45
2024-03-30T10:05:58.316Z,49.68
2024-03-30T10:06:58.326Z,56.24
2024-03-30T10:07:58.344Z,48.08
2024-03-30T10:08:58.355Z,56.58
2024-03-30T10:09:58.349Z,52.25
2024-03-30T10:10:59.308Z,49.69
2024-03-30T10:11:58.359Z,60.72
2024-03-30T10:12:58.395Z,59.69
2024-03-30T10:14:06.986Z,55.83
2024-03-30T10:14:59.429Z,44.30
2024-03-30T10:15:59.249Z,52.88
2024-03-30T10:16:58.403Z,50.07
2024-03-30T10:17:58.422Z,52.57
2024-03-30T10:18:58.391Z,53.42
2024-03-30T10:19:58.386Z,44.86
2024-03-30T10:20:58.339Z,50.68
2024-03-30T10:21:58.393Z,49.61
2024-03-30T10:22:58.351Z,51.28
2024-03-30T10:23:58.867Z,49.49
2024-03-30T10:24:58.404Z,56.65
2024-03-30T10:25:58.367Z,52.80
2024-03-30T10:26:58.359Z,54.30
2024-03-30T10:27:58.438Z,53.60
2024-03-30T10:28:58.480Z,59.97
2024-03-30T10:29:58.505Z,52.10
2024-03-30T10:30:58.611Z,50.71
2024-03-30T10:31:58.513Z,54.46
2024-03-30T10:32:58.633Z,46.94
2024-03-30T10:33:58.674Z,46.76
2024-03-30T10:34:58.732Z,40.79
2024-03-30T10:35:58.724Z,58.07
2024-03-30T10:36:58.706Z,44.08
2024-03-30T10:37:58.765Z,51.80
2024-03-30T10:38:58.790Z,48.56
2024-03-30T10:39:58.824Z,47.79
2024-03-30T10:40:58.844Z,48.50
2024-03-30T10:41:58.899Z,48.63
2024-03-30T10:42:58.895Z,51.57
2024-03-30T10:43:59.002Z,51.33
2024-03-30T10:44:59.020Z,47.19
2024-03-30T10:45:59.024Z,55.43
2024-03-30T10:46:59.043Z,50.05
2024-03-30T10:47:59.134Z,50.49
2024-03-30T10:48:59.150Z,52.48
2024-03-30T10:49:59.228Z,45.74
2024-03-30T10:50:59.160Z,49.55
2024-03-30T10:51:59.237Z,49.33
2024-03-30T10:52:59.283Z,47.59
2024-03-30T10:53:59.390Z,50.25
2024-03-30T10:54:59.288Z,53.12
2024-03-30T10:55:59.352Z,50.91
2024-03-30T10:56:59.412Z,58.36
2024-03-30T10:57:59.442Z,48.27
2024-03-30T10:58:59.533Z,54.15
2024-03-30T10:59:59.531Z,47.92
2024-03-30T11:00:59.642Z,50.44
2024-03-30T11:01:59.648Z,53.11
2024-03-30T11:02:59.693Z,48.64
2024-03-30T11:03:59.762Z,53.51
2024-03-30T11:04:59.791Z,50.08
2024-03-30T11:05:59.778Z,61.08
2024-03-30T11:06:59.828Z,47.86
2024-03-30T11:08:02.897Z,50.53
2024-03-30T11:08:59.949Z,47.51
2024-03-30T11:09:59.910Z,49.80
2024-03-30T11:10:59.963Z,46.34
2024-03-30T11:11:59.950Z,52.36
2024-03-30T11:12:59.903Z,53.26
2024-03-30T11:13:59.938Z,49.97
2024-03-30T11:14:59.927Z,47.13
2024-03-30T11:15:59.890Z,54.52
2024-03-30T11:16:59.985Z,61.40
2024-03-30T11:17:59.906Z,48.02
2024-03-30T11:18:59.975Z,51.01
2024-03-30T11:19:59.995Z,48.94
2024-03-30T11:20:59.945Z,49.32
2024-03-30T11:21:59.938Z,50.44
2024-03-30T11:23:00.060Z,50.53
2024-03-30T11:24:00.304Z,51.32
2024-03-30T11:25:00.037Z,45.89
2024-03-30T11:25:59.935Z,50.23
2024-03-30T11:26:59.953Z,57.14
2024-03-30T11:27:59.960Z,48.40
2024-03-30T11:29:00.058Z,56.47
2024-03-30T11:29:59.973Z,51.64
2024-03-30T11:30:59.938Z,54.93
2024-03-30T11:32:00.029Z,55.06
2024-03-30T11:32:59.995Z,51.78
2024-03-30T11:33:59.996Z,51.73
2024-03-30T11:35:00.020Z,53.27
2024-03-30T11:35:59.947Z,52.82
2024-03-30T11:37:00.024Z,43.23
2024-03-30T11:37:59.920Z,45.88
2024-03-30T11:39:02.005Z,54.48
2024-03-30T11:40:00.239Z,45.25
2024-03-30T11:40:59.946Z,50.85
2024-03-30T11:42:00.074Z,52.01
2024-03-30T11:42:59.950Z,44.29
2024-03-30T11:44:00.074Z,47.30
2024-03-30T11:45:00.002Z,43.14
2024-03-30T11:45:59.985Z,49.56
2024-03-30T11:47:00.060Z,47.78
2024-03-30T11:48:00.096Z,47.12
2024-03-30T11:49:00.105Z,48.99
2024-03-30T11:50:00.124Z,61.37
2024-03-30T11:51:00.112Z,48.06
2024-03-30T11:52:00.147Z,52.88
2024-03-30T11:53:00.147Z,52.88
2024-03-30T11:54:00.237Z,54.77
2024-03-30T11:55:00.235Z,45.57
2024-03-30T11:56:00.358Z,47.04
2024-03-30T11:57:04.520Z,44.99
2024-03-30T11:58:01.298Z,46.54
2024-03-30T11:59:00.385Z,51.00
2024-03-30T12:00:00.390Z,44.84
2024-03-30T12:01:00.381Z,50.76
2024-03-30T12:02:00.393Z,49.46
2024-03-30T12:03:00.393Z,47.05
2024-03-30T12:04:00.303Z,56.25
2024-03-30T12:05:01.492Z,47.27
2024-03-30T12:06:00.325Z,44.59
2024-03-30T12:07:00.309Z,43.51
2024-03-30T12:08:00.313Z,45.29
2024-03-30T12:09:00.434Z,44.61
2024-03-30T12:10:00.372Z,49.28
2024-03-30T12:11:01.769Z,50.60
2024-03-30T12:12:00.625Z,47.04
2024-03-30T12:13:00.678Z,43.24
2024-03-30T12:14:00.778Z,37.24
2024-03-30T12:15:00.789Z,43.44
2024-03-30T12:16:00.796Z,44.09
2024-03-30T12:17:00.790Z,43.70
2024-03-30T12:18:00.794Z,40.50
2024-03-30T12:19:00.907Z,41.92
2024-03-30T12:20:00.846Z,35.64
2024-03-30T12:21:00.921Z,40.90
2024-03-30T12:22:00.931Z,35.44
2024-03-30T12:23:01.030Z,38.49
2024-03-30T12:24:01.035Z,41.05
2024-03-30T12:25:01.097Z,41.03
2024-03-30T12:26:01.071Z,43.05
2024-03-30T12:27:01.168Z,37.41
2024-03-30T12:28:01.266Z,38.23
2024-03-30T12:29:01.228Z,38.07
2024-03-30T12:30:01.219Z,32.02
2024-03-30T12:31:01.247Z,30.43
2024-03-30T12:32:01.301Z,36.19
2024-03-30T12:33:01.306Z,36.99
2024-03-30T12:34:01.437Z,34.43
2024-03-30T12:35:01.420Z,33.43
2024-03-30T12:36:01.435Z,37.63
2024-03-30T12:37:02.375Z,35.98
2024-03-30T12:38:01.474Z,32.56
2024-03-30T12:39:03.450Z,36.25
2024-03-30T12:40:01.707Z,39.87
2024-03-30T12:41:01.569Z,40.97
2024-03-30T12:42:01.572Z,33.53
2024-03-30T12:43:01.590Z,32.94
2024-03-30T12:44:01.587Z,30.37
2024-03-30T12:45:01.589Z,34.52
2024-03-30T12:46:01.512Z,36.38
2024-03-30T12:47:01.532Z,35.87
2024-03-30T12:48:01.517Z,33.95
2024-03-30T12:49:01.647Z,37.27
2024-03-30T12:50:01.567Z,33.48
2024-03-30T12:51:01.559Z,30.72
2024-03-30T12:52:01.553Z,31.68
2024-03-30T12:53:01.552Z,33.13